Wastedo, Minnesota
Current Conditions -  °F | °C
As of 1:53 AM on Saturday 25 Oct 2014 (Local Time) from KSYN Reporting Station
Clear Clear  
Wind Chill: 56°   Ceiling: Unl
Heat Index: 56°   Visibility: 10mi
Dew Point: 44°   Wind: 8mph
Humidity: 66%   Direction: 270°W
Pressure: 29.93"   Gusts: NA
Location:  44.4763°N, 92.8054°W
Report Text: KSYN 250653Z AUTO 27007KT 10SM CLR 13/07 A2993 RMK AO2 T01320069
Loading
Personal Weather Stations






























Interactive Weather Map New forecast layout! Learn more

10-Day Weather Forecast

Advertisements
Track Severe Weather on mobile